sensor_id;sensor_type;location;lat;lon;timestamp;pressure;altitude;pressure_sealevel;temperature;humidity
17635;BME280;8936;49.010;12.120;2023-09-08T00:00:01;98228.06;;;23.85;98.23
17635;BME280;8936;49.010;12.120;2023-09-08T00:02:32;98222.19;;;23.83;97.34
17635;BME280;8936;49.010;12.120;2023-09-08T00:04:58;98230.38;;;23.83;96.50
17635;BME280;8936;49.010;12.120;2023-09-08T00:07:27;98225.25;;;23.81;96.46
17635;BME280;8936;49.010;12.120;2023-09-08T00:09:55;98224.00;;;23.79;95.95
17635;BME280;8936;49.010;12.120;2023-09-08T00:12:22;98222.38;;;23.78;95.83
17635;BME280;8936;49.010;12.120;2023-09-08T00:14:48;98223.53;;;23.77;95.41
17635;BME280;8936;49.010;12.120;2023-09-08T00:17:16;98221.50;;;23.74;95.19
17635;BME280;8936;49.010;12.120;2023-09-08T00:19:43;98228.09;;;23.73;94.71
17635;BME280;8936;49.010;12.120;2023-09-08T00:22:09;98217.84;;;23.70;94.64
17635;BME280;8936;49.010;12.120;2023-09-08T00:24:35;98221.03;;;23.72;94.23
17635;BME280;8936;49.010;12.120;2023-09-08T00:27:03;98227.16;;;23.69;94.33
17635;BME280;8936;49.010;12.120;2023-09-08T00:29:29;98221.28;;;23.67;94.56
17635;BME280;8936;49.010;12.120;2023-09-08T00:31:57;98216.94;;;23.65;94.54
17635;BME280;8936;49.010;12.120;2023-09-08T00:34:23;98215.34;;;23.64;94.27
17635;BME280;8936;49.010;12.120;2023-09-08T00:36:50;98216.03;;;23.61;94.50
17635;BME280;8936;49.010;12.120;2023-09-08T00:39:17;98216.38;;;23.60;94.53
17635;BME280;8936;49.010;12.120;2023-09-08T00:41:43;98213.97;;;23.58;94.74
17635;BME280;8936;49.010;12.120;2023-09-08T00:44:11;98215.13;;;23.57;95.20
17635;BME280;8936;49.010;12.120;2023-09-08T00:46:37;98209.19;;;23.55;95.34
17635;BME280;8936;49.010;12.120;2023-09-08T00:49:04;98216.94;;;23.53;95.72
17635;BME280;8936;49.010;12.120;2023-09-08T00:51:31;98221.94;;;23.51;96.34
17635;BME280;8936;49.010;12.120;2023-09-08T00:54:13;98212.16;;;23.50;96.60
17635;BME280;8936;49.010;12.120;2023-09-08T00:56:41;98207.50;;;23.51;96.59
17635;BME280;8936;49.010;12.120;2023-09-08T00:59:07;98205.47;;;23.48;96.83
17635;BME280;8936;49.010;12.120;2023-09-08T01:01:52;98207.72;;;23.46;97.05
17635;BME280;8936;49.010;12.120;2023-09-08T01:04:20;98208.06;;;23.44;97.34
17635;BME280;8936;49.010;12.120;2023-09-08T01:06:46;98207.28;;;23.44;97.26
17635;BME280;8936;49.010;12.120;2023-09-08T01:09:13;98207.63;;;23.42;97.34
17635;BME280;8936;49.010;12.120;2023-09-08T01:11:39;98207.47;;;23.39;97.49
17635;BME280;8936;49.010;12.120;2023-09-08T01:14:06;98204.44;;;23.40;97.42
17635;BME280;8936;49.010;12.120;2023-09-08T01:16:32;98211.69;;;23.36;97.57
17635;BME280;8936;49.010;12.120;2023-09-08T01:19:00;98207.34;;;23.35;97.22
17635;BME280;8936;49.010;12.120;2023-09-08T01:21:42;98207.22;;;23.32;97.48
17635;BME280;8936;49.010;12.120;2023-09-08T01:24:17;98204.19;;;23.33;96.89
17635;BME280;8936;49.010;12.120;2023-09-08T01:26:50;98208.03;;;23.32;96.60
17635;BME280;8936;49.010;12.120;2023-09-08T01:29:18;98210.31;;;23.30;96.77
17635;BME280;8936;49.010;12.120;2023-09-08T01:31:45;98205.53;;;23.27;96.92
17635;BME280;8936;49.010;12.120;2023-09-08T01:34:12;98207.78;;;23.25;96.71
17635;BME280;8936;49.010;12.120;2023-09-08T01:36:39;98217.09;;;23.24;96.73
17635;BME280;8936;49.010;12.120;2023-09-08T01:39:05;98211.97;;;23.23;96.72
17635;BME280;8936;49.010;12.120;2023-09-08T01:41:33;98206.88;;;23.21;96.81
17635;BME280;8936;49.010;12.120;2023-09-08T01:44:01;98209.94;;;23.20;96.79
17635;BME280;8936;49.010;12.120;2023-09-08T01:46:33;98203.69;;;23.19;96.66
17635;BME280;8936;49.010;12.120;2023-09-08T01:48:59;98204.03;;;23.18;96.62
17635;BME280;8936;49.010;12.120;2023-09-08T01:51:26;98201.31;;;23.18;96.40
17635;BME280;8936;49.010;12.120;2023-09-08T01:53:53;98205.16;;;23.17;95.93
17635;BME280;8936;49.010;12.120;2023-09-08T01:56:21;98203.13;;;23.13;96.00
17635;BME280;8936;49.010;12.120;2023-09-08T01:59:01;98203.44;;;23.12;95.93
17635;BME280;8936;49.010;12.120;2023-09-08T02:01:30;98194.81;;;23.10;95.77
17635;BME280;8936;49.010;12.120;2023-09-08T02:03:58;98200.94;;;23.07;95.73
17635;BME280;8936;49.010;12.120;2023-09-08T02:06:25;98191.16;;;23.06;95.24
17635;BME280;8936;49.010;12.120;2023-09-08T02:08:51;98191.84;;;23.03;95.57
17635;BME280;8936;49.010;12.120;2023-09-08T02:11:17;98190.72;;;23.04;95.52
17635;BME280;8936;49.010;12.120;2023-09-08T02:13:44;98198.44;;;23.02;95.15
17635;BME280;8936;49.010;12.120;2023-09-08T02:16:14;98193.00;;;23.02;94.94
17635;BME280;8936;49.010;12.120;2023-09-08T02:18:40;98190.94;;;22.99;94.84
17635;BME280;8936;49.010;12.120;2023-09-08T02:21:24;98183.09;;;22.97;94.79
17635;BME280;8936;49.010;12.120;2023-09-08T02:23:51;98181.16;;;22.98;94.61
17635;BME280;8936;49.010;12.120;2023-09-08T02:26:17;98179.91;;;22.95;95.00
17635;BME280;8936;49.010;12.120;2023-09-08T02:28:43;98181.16;;;22.98;94.73
17635;BME280;8936;49.010;12.120;2023-09-08T02:31:10;98184.13;;;22.93;94.92
17635;BME280;8936;49.010;12.120;2023-09-08T02:33:38;98188.63;;;22.89;95.46
17635;BME280;8936;49.010;12.120;2023-09-08T02:36:05;98183.88;;;22.86;95.60
17635;BME280;8936;49.010;12.120;2023-09-08T02:38:31;98181.47;;;22.84;95.87
17635;BME280;8936;49.010;12.120;2023-09-08T02:40:58;98186.91;;;22.84;95.75
17635;BME280;8936;49.010;12.120;2023-09-08T02:43:24;98185.88;;;22.77;96.03
17635;BME280;8936;49.010;12.120;2023-09-08T02:45:52;98182.22;;;22.73;96.49
17635;BME280;8936;49.010;12.120;2023-09-08T02:48:18;98183.03;;;22.73;96.73
17635;BME280;8936;49.010;12.120;2023-09-08T02:50:46;98183.34;;;22.72;96.64
17635;BME280;8936;49.010;12.120;2023-09-08T02:53:12;98195.84;;;22.73;96.49
17635;BME280;8936;49.010;12.120;2023-09-08T02:55:39;98200.25;;;22.65;96.68
17635;BME280;8936;49.010;12.120;2023-09-08T02:58:19;98192.53;;;22.67;96.70
17635;BME280;8936;49.010;12.120;2023-09-08T03:00:48;98184.03;;;22.69;96.45
17635;BME280;8936;49.010;12.120;2023-09-08T03:03:18;98182.91;;;22.70;96.29
17635;BME280;8936;49.010;12.120;2023-09-08T03:05:44;98185.63;;;22.70;96.20
17635;BME280;8936;49.010;12.120;2023-09-08T03:08:15;98179.25;;;22.66;96.35
17635;BME280;8936;49.010;12.120;2023-09-08T03:10:44;98192.38;;;22.64;96.36
17635;BME280;8936;49.010;12.120;2023-09-08T03:13:11;98189.38;;;22.65;96.19
17635;BME280;8936;49.010;12.120;2023-09-08T03:15:37;98189.19;;;22.62;96.16
17635;BME280;8936;49.010;12.120;2023-09-08T03:18:04;98198.16;;;22.62;96.00
17635;BME280;8936;49.010;12.120;2023-09-08T03:20:30;98184.06;;;22.60;96.00
17635;BME280;8936;49.010;12.120;2023-09-08T03:22:56;98192.59;;;22.58;95.99
17635;BME280;8936;49.010;12.120;2023-09-08T03:25:38;98195.31;;;22.58;95.77
17635;BME280;8936;49.010;12.120;2023-09-08T03:28:07;98193.72;;;22.57;95.63
17635;BME280;8936;49.010;12.120;2023-09-08T03:30:33;98195.19;;;22.55;95.82
17635;BME280;8936;49.010;12.120;2023-09-08T03:32:59;98193.44;;;22.50;96.30
17635;BME280;8936;49.010;12.120;2023-09-08T03:35:40;98189.81;;;22.46;96.29
17635;BME280;8936;49.010;12.120;2023-09-08T03:38:07;98196.38;;;22.45;96.70
17635;BME280;8936;49.010;12.120;2023-09-08T03:40:33;98194.47;;;22.46;96.38
17635;BME280;8936;49.010;12.120;2023-09-08T03:43:01;98186.97;;;22.43;96.79
17635;BME280;8936;49.010;12.120;2023-09-08T03:45:27;98191.94;;;22.41;96.51
17635;BME280;8936;49.010;12.120;2023-09-08T03:47:53;98190.34;;;22.40;96.62
17635;BME280;8936;49.010;12.120;2023-09-08T03:50:20;98188.44;;;22.40;96.29
17635;BME280;8936;49.010;12.120;2023-09-08T03:52:46;98199.31;;;22.40;96.24
17635;BME280;8936;49.010;12.120;2023-09-08T03:55:26;98200.44;;;22.39;95.82
17635;BME280;8936;49.010;12.120;2023-09-08T03:57:53;98192.94;;;22.36;96.32
17635;BME280;8936;49.010;12.120;2023-09-08T04:00:21;98202.22;;;22.35;96.66
17635;BME280;8936;49.010;12.120;2023-09-08T04:02:47;98193.59;;;22.33;96.88
17635;BME280;8936;49.010;12.120;2023-09-08T04:05:14;98195.84;;;22.31;96.95
17635;BME280;8936;49.010;12.120;2023-09-08T04:07:40;98191.56;;;22.30;96.88
17635;BME280;8936;49.010;12.120;2023-09-08T04:10:08;98191.88;;;22.29;96.95
17635;BME280;8936;49.010;12.120;2023-09-08T04:12:34;98195.75;;;22.28;97.21
17635;BME280;8936;49.010;12.120;2023-09-08T04:15:02;98191.72;;;22.25;97.02
17635;BME280;8936;49.010;12.120;2023-09-08T04:17:30;98203.41;;;22.26;97.27
17635;BME280;8936;49.010;12.120;2023-09-08T04:19:56;98207.59;;;22.23;97.07
17635;BME280;8936;49.010;12.120;2023-09-08T04:22:23;98210.31;;;22.23;97.34
17635;BME280;8936;49.010;12.120;2023-09-08T04:24:50;98203.28;;;22.22;97.31
17635;BME280;8936;49.010;12.120;2023-09-08T04:27:18;98204.44;;;22.21;97.24
17635;BME280;8936;49.010;12.120;2023-09-08T04:29:44;98209.38;;;22.19;97.13
17635;BME280;8936;49.010;12.120;2023-09-08T04:32:13;98206.22;;;22.17;97.34
17635;BME280;8936;49.010;12.120;2023-09-08T04:34:43;98208.47;;;22.15;97.37
17635;BME280;8936;49.010;12.120;2023-09-08T04:37:14;98206.88;;;22.14;97.24
17635;BME280;8936;49.010;12.120;2023-09-08T04:39:43;98212.66;;;22.13;96.94
17635;BME280;8936;49.010;12.120;2023-09-08T04:42:25;98209.94;;;22.13;97.02
17635;BME280;8936;49.010;12.120;2023-09-08T04:44:52;98217.16;;;22.09;97.82
17635;BME280;8936;49.010;12.120;2023-09-08T04:47:18;98221.34;;;22.06;97.72
17635;BME280;8936;49.010;12.120;2023-09-08T04:49:49;98214.28;;;22.05;97.92
17635;BME280;8936;49.010;12.120;2023-09-08T04:52:15;98220.03;;;22.03;98.00
17635;BME280;8936;49.010;12.120;2023-09-08T04:55:00;98216.56;;;22.03;97.65
17635;BME280;8936;49.010;12.120;2023-09-08T04:57:29;98219.28;;;22.03;97.66
17635;BME280;8936;49.010;12.120;2023-09-08T04:59:56;98219.28;;;22.03;97.69
17635;BME280;8936;49.010;12.120;2023-09-08T05:02:22;98229.34;;;22.02;97.64
17635;BME280;8936;49.010;12.120;2023-09-08T05:04:50;98231.28;;;22.02;97.18
17635;BME280;8936;49.010;12.120;2023-09-08T05:07:16;98232.72;;;21.99;98.05
17635;BME280;8936;49.010;12.120;2023-09-08T05:09:44;98235.63;;;21.94;97.94
17635;BME280;8936;49.010;12.120;2023-09-08T05:12:10;98239.94;;;21.95;98.10
17635;BME280;8936;49.010;12.120;2023-09-08T05:14:36;98236.44;;;21.95;98.09
17635;BME280;8936;49.010;12.120;2023-09-08T05:17:03;98236.56;;;21.69;99.13
17635;BME280;8936;49.010;12.120;2023-09-08T05:19:30;98235.25;;;21.75;100.00
17635;BME280;8936;49.010;12.120;2023-09-08T05:21:57;98246.72;;;21.81;99.38
17635;BME280;8936;49.010;12.120;2023-09-08T05:24:24;98237.97;;;21.67;100.00
17635;BME280;8936;49.010;12.120;2023-09-08T05:26:51;98233.50;;;21.71;100.00
17635;BME280;8936;49.010;12.120;2023-09-08T05:29:18;98240.03;;;21.78;100.00
17635;BME280;8936;49.010;12.120;2023-09-08T05:31:44;98237.75;;;21.80;99.35
17635;BME280;8936;49.010;12.120;2023-09-08T05:34:11;98237.91;;;21.84;99.36
17635;BME280;8936;49.010;12.120;2023-09-08T05:36:37;98249.72;;;21.88;98.71
17635;BME280;8936;49.010;12.120;2023-09-08T05:39:06;98254.84;;;21.89;98.94
17635;BME280;8936;49.010;12.120;2023-09-08T05:41:33;98250.22;;;21.90;99.23
17635;BME280;8936;49.010;12.120;2023-09-08T05:44:00;98246.38;;;21.91;100.00
17635;BME280;8936;49.010;12.120;2023-09-08T05:46:26;98250.38;;;21.93;100.00
17635;BME280;8936;49.010;12.120;2023-09-08T05:48:52;98254.88;;;22.10;99.42
17635;BME280;8936;49.010;12.120;2023-09-08T05:51:19;98255.81;;;21.93;100.00
17635;BME280;8936;49.010;12.120;2023-09-08T05:53:45;98257.09;;;22.17;98.63
17635;BME280;8936;49.010;12.120;2023-09-08T05:56:13;98254.94;;;22.51;96.86
17635;BME280;8936;49.010;12.120;2023-09-08T05:58:39;98255.06;;;22.76;93.72
17635;BME280;8936;49.010;12.120;2023-09-08T06:01:08;98260.91;;;23.19;90.88
17635;BME280;8936;49.010;12.120;2023-09-08T06:03:35;98257.72;;;23.17;90.11
17635;BME280;8936;49.010;12.120;2023-09-08T06:06:02;98255.69;;;23.59;87.32
17635;BME280;8936;49.010;12.120;2023-09-08T06:08:29;98255.69;;;23.83;85.03
17635;BME280;8936;49.010;12.120;2023-09-08T06:10:55;98257.25;;;24.08;83.04
17635;BME280;8936;49.010;12.120;2023-09-08T06:13:23;98256.38;;;24.29;81.05
17635;BME280;8936;49.010;12.120;2023-09-08T06:15:49;98254.59;;;24.48;79.38
17635;BME280;8936;49.010;12.120;2023-09-08T06:18:16;98248.66;;;24.58;78.04
17635;BME280;8936;49.010;12.120;2023-09-08T06:20:45;98252.50;;;24.30;79.72
17635;BME280;8936;49.010;12.120;2023-09-08T06:23:12;98253.94;;;24.39;80.08
17635;BME280;8936;49.010;12.120;2023-09-08T06:25:38;98248.19;;;24.68;77.92
17635;BME280;8936;49.010;12.120;2023-09-08T06:28:08;98245.88;;;24.83;77.12
17635;BME280;8936;49.010;12.120;2023-09-08T06:30:35;98249.41;;;25.11;74.79
17635;BME280;8936;49.010;12.120;2023-09-08T06:33:02;98251.56;;;25.33;73.58
17635;BME280;8936;49.010;12.120;2023-09-08T06:35:29;98257.44;;;25.19;73.94
17635;BME280;8936;49.010;12.120;2023-09-08T06:38:12;98244.50;;;25.32;72.98
17635;BME280;8936;49.010;12.120;2023-09-08T06:40:38;98246.84;;;25.61;71.53
17635;BME280;8936;49.010;12.120;2023-09-08T06:43:05;98247.06;;;25.88;69.97
17635;BME280;8936;49.010;12.120;2023-09-08T06:45:31;98253.88;;;25.78;70.29
17635;BME280;8936;49.010;12.120;2023-09-08T06:47:59;98256.28;;;25.64;70.04
17635;BME280;8936;49.010;12.120;2023-09-08T06:50:25;98259.81;;;25.64;70.71
17635;BME280;8936;49.010;12.120;2023-09-08T06:52:52;98265.19;;;25.76;70.23
17635;BME280;8936;49.010;12.120;2023-09-08T06:55:18;98260.81;;;26.07;68.86
17635;BME280;8936;49.010;12.120;2023-09-08T06:57:47;98258.34;;;26.33;67.42
17635;BME280;8936;49.010;12.120;2023-09-08T07:00:14;98257.25;;;26.38;67.13
17635;BME280;8936;49.010;12.120;2023-09-08T07:02:42;98261.22;;;26.40;67.16
17635;BME280;8936;49.010;12.120;2023-09-08T07:05:10;98247.81;;;26.35;66.97
17635;BME280;8936;49.010;12.120;2023-09-08T07:07:36;98252.56;;;26.38;66.87
17635;BME280;8936;49.010;12.120;2023-09-08T07:10:03;98250.59;;;26.19;67.81
17635;BME280;8936;49.010;12.120;2023-09-08T07:12:30;98251.41;;;26.20;68.48
17635;BME280;8936;49.010;12.120;2023-09-08T07:14:56;98253.63;;;25.99;68.89
17635;BME280;8936;49.010;12.120;2023-09-08T07:17:23;98251.84;;;25.91;69.93
17635;BME280;8936;49.010;12.120;2023-09-08T07:19:49;98252.66;;;25.75;70.55
17635;BME280;8936;49.010;12.120;2023-09-08T07:22:25;98253.31;;;25.41;72.26
17635;BME280;8936;49.010;12.120;2023-09-08T07:24:51;98252.56;;;25.13;75.33
17635;BME280;8936;49.010;12.120;2023-09-08T07:27:17;98259.00;;;25.05;76.61
17635;BME280;8936;49.010;12.120;2023-09-08T07:29:45;98260.66;;;24.94;77.20
17635;BME280;8936;49.010;12.120;2023-09-08T07:32:14;98265.50;;;24.60;80.08
17635;BME280;8936;49.010;12.120;2023-09-08T07:34:41;98258.03;;;24.45;81.72
17635;BME280;8936;49.010;12.120;2023-09-08T07:37:07;98257.25;;;24.08;85.12
17635;BME280;8936;49.010;12.120;2023-09-08T07:39:35;98258.31;;;23.92;86.56
17635;BME280;8936;49.010;12.120;2023-09-08T07:42:13;98245.94;;;23.70;88.97
17635;BME280;8936;49.010;12.120;2023-09-08T07:44:39;98254.09;;;23.82;88.54
17635;BME280;8936;49.010;12.120;2023-09-08T07:47:08;98248.97;;;23.93;87.49
17635;BME280;8936;49.010;12.120;2023-09-08T07:49:47;98246.25;;;23.93;86.98
17635;BME280;8936;49.010;12.120;2023-09-08T07:52:16;98248.09;;;23.89;85.71
17635;BME280;8936;49.010;12.120;2023-09-08T07:54:44;98250.81;;;23.77;83.64
17635;BME280;8936;49.010;12.120;2023-09-08T07:57:13;98251.94;;;23.76;87.74
17635;BME280;8936;49.010;12.120;2023-09-08T07:59:39;98243.41;;;23.65;84.47
17635;BME280;8936;49.010;12.120;2023-09-08T08:02:05;98257.59;;;23.58;86.14
17635;BME280;8936;49.010;12.120;2023-09-08T08:04:36;98251.25;;;23.54;85.80
17635;BME280;8936;49.010;12.120;2023-09-08T08:07:02;98248.75;;;23.61;86.76
17635;BME280;8936;49.010;12.120;2023-09-08T08:09:28;98242.97;;;23.63;85.35
17635;BME280;8936;49.010;12.120;2023-09-08T08:11:56;98247.06;;;23.69;83.04
17635;BME280;8936;49.010;12.120;2023-09-08T08:14:22;98242.84;;;23.47;81.95
17635;BME280;8936;49.010;12.120;2023-09-08T08:16:49;98242.09;;;23.38;82.65
17635;BME280;8936;49.010;12.120;2023-09-08T08:19:15;98241.91;;;23.43;83.59
17635;BME280;8936;49.010;12.120;2023-09-08T08:21:42;98242.63;;;23.20;76.06
17635;BME280;8936;49.010;12.120;2023-09-08T08:24:22;98244.03;;;22.93;76.80
17635;BME280;8936;49.010;12.120;2023-09-08T08:26:48;98247.00;;;23.00;78.99
17635;BME280;8936;49.010;12.120;2023-09-08T08:29:18;98243.38;;;22.96;74.72
17635;BME280;8936;49.010;12.120;2023-09-08T08:31:45;98242.88;;;22.94;75.67
17635;BME280;8936;49.010;12.120;2023-09-08T08:34:11;98241.91;;;22.98;79.36
17635;BME280;8936;49.010;12.120;2023-09-08T08:36:37;98237.47;;;23.06;75.68
17635;BME280;8936;49.010;12.120;2023-09-08T08:39:04;98239.53;;;23.09;77.26
17635;BME280;8936;49.010;12.120;2023-09-08T08:41:31;98239.78;;;23.16;81.95
17635;BME280;8936;49.010;12.120;2023-09-08T08:43:59;98239.09;;;23.07;74.13
17635;BME280;8936;49.010;12.120;2023-09-08T08:46:27;98228.84;;;23.04;73.66
17635;BME280;8936;49.010;12.120;2023-09-08T08:48:54;98231.16;;;23.14;74.45
17635;BME280;8936;49.010;12.120;2023-09-08T08:51:20;98237.97;;;23.08;67.41
17635;BME280;8936;49.010;12.120;2023-09-08T08:53:54;98231.72;;;23.07;67.53
17635;BME280;8936;49.010;12.120;2023-09-08T08:56:21;98233.19;;;23.05;68.53
17635;BME280;8936;49.010;12.120;2023-09-08T08:58:48;98235.09;;;23.04;67.75
17635;BME280;8936;49.010;12.120;2023-09-08T09:01:15;98229.56;;;23.13;67.35
17635;BME280;8936;49.010;12.120;2023-09-08T09:03:58;98235.47;;;23.15;68.08
17635;BME280;8936;49.010;12.120;2023-09-08T09:06:24;98234.78;;;23.18;67.87
17635;BME280;8936;49.010;12.120;2023-09-08T09:08:50;98234.34;;;23.16;66.51
17635;BME280;8936;49.010;12.120;2023-09-08T09:11:17;98233.34;;;23.21;67.81
17635;BME280;8936;49.010;12.120;2023-09-08T09:13:43;98238.34;;;23.31;68.07
17635;BME280;8936;49.010;12.120;2023-09-08T09:16:10;98235.84;;;23.38;67.67
17635;BME280;8936;49.010;12.120;2023-09-08T09:18:53;98231.50;;;23.57;67.74
17635;BME280;8936;49.010;12.120;2023-09-08T09:21:21;98236.56;;;23.47;62.32
17635;BME280;8936;49.010;12.120;2023-09-08T09:23:48;98236.81;;;23.54;62.62
17635;BME280;8936;49.010;12.120;2023-09-08T09:26:22;98233.97;;;23.62;62.20
17635;BME280;8936;49.010;12.120;2023-09-08T09:28:51;98237.19;;;23.77;62.19
17635;BME280;8936;49.010;12.120;2023-09-08T09:31:19;98232.63;;;23.69;61.05
17635;BME280;8936;49.010;12.120;2023-09-08T09:33:48;98236.94;;;23.82;60.77
17635;BME280;8936;49.010;12.120;2023-09-08T09:36:28;98231.38;;;23.90;59.98
17635;BME280;8936;49.010;12.120;2023-09-08T09:38:55;98228.75;;;23.94;60.22
17635;BME280;8936;49.010;12.120;2023-09-08T09:41:23;98232.72;;;23.96;60.06
17635;BME280;8936;49.010;12.120;2023-09-08T09:43:50;98232.41;;;23.98;60.54
17635;BME280;8936;49.010;12.120;2023-09-08T09:46:34;98226.94;;;24.10;60.10
17635;BME280;8936;49.010;12.120;2023-09-08T09:49:00;98221.81;;;24.21;59.84
17635;BME280;8936;49.010;12.120;2023-09-08T09:51:29;98227.63;;;24.07;59.65
17635;BME280;8936;49.010;12.120;2023-09-08T09:53:55;98225.53;;;24.40;59.65
17635;BME280;8936;49.010;12.120;2023-09-08T09:56:24;98221.56;;;24.65;59.05
17635;BME280;8936;49.010;12.120;2023-09-08T09:58:52;98223.28;;;24.58;59.69
17635;BME280;8936;49.010;12.120;2023-09-08T10:01:19;98235.06;;;24.46;58.49
17635;BME280;8936;49.010;12.120;2023-09-08T10:07:19;98227.78;;;24.50;58.67
17635;BME280;8936;49.010;12.120;2023-09-08T10:09:46;98230.22;;;24.95;57.61
17635;BME280;8936;49.010;12.120;2023-09-08T10:12:13;98228.97;;;24.65;58.06
17635;BME280;8936;49.010;12.120;2023-09-08T10:14:41;98223.34;;;24.46;58.33
17635;BME280;8936;49.010;12.120;2023-09-08T10:17:08;98221.00;;;24.32;59.04
17635;BME280;8936;49.010;12.120;2023-09-08T10:19:37;98213.00;;;25.22;57.76
17635;BME280;8936;49.010;12.120;2023-09-08T10:22:06;98212.91;;;25.03;58.24
17635;BME280;8936;49.010;12.120;2023-09-08T10:24:36;98209.69;;;24.73;58.76
17635;BME280;8936;49.010;12.120;2023-09-08T10:27:06;98207.31;;;24.84;59.29
17635;BME280;8936;49.010;12.120;2023-09-08T10:29:33;98207.69;;;25.14;58.97
17635;BME280;8936;49.010;12.120;2023-09-08T10:32:00;98203.94;;;25.34;58.71
17635;BME280;8936;49.010;12.120;2023-09-08T10:34:28;98203.28;;;25.88;57.44
17635;BME280;8936;49.010;12.120;2023-09-08T10:36:54;98204.44;;;26.56;55.99
17635;BME280;8936;49.010;12.120;2023-09-08T10:39:27;98203.28;;;26.96;54.34
17635;BME280;8936;49.010;12.120;2023-09-08T10:44:39;98209.38;;;25.97;53.47
17635;BME280;8936;49.010;12.120;2023-09-08T10:47:05;98187.78;;;25.76;54.74
17635;BME280;8936;49.010;12.120;2023-09-08T10:49:34;98194.03;;;25.92;53.82
17635;BME280;8936;49.010;12.120;2023-09-08T10:52:05;98202.22;;;26.08;53.72
17635;BME280;8936;49.010;12.120;2023-09-08T10:54:41;98195.72;;;25.81;51.94
17635;BME280;8936;49.010;12.120;2023-09-08T10:57:08;98190.63;;;25.64;52.51
17635;BME280;8936;49.010;12.120;2023-09-08T10:59:40;98193.34;;;25.80;52.17
17635;BME280;8936;49.010;12.120;2023-09-08T11:02:06;98183.09;;;26.46;51.68
17635;BME280;8936;49.010;12.120;2023-09-08T11:04:33;98183.94;;;26.12;51.24
17635;BME280;8936;49.010;12.120;2023-09-08T11:07:00;98186.22;;;26.45;51.43
17635;BME280;8936;49.010;12.120;2023-09-08T11:09:27;98192.03;;;27.01;50.26
17635;BME280;8936;49.010;12.120;2023-09-08T11:11:53;98178.91;;;26.71;49.58
17635;BME280;8936;49.010;12.120;2023-09-08T11:14:20;98183.47;;;26.64;50.71
17635;BME280;8936;49.010;12.120;2023-09-08T11:16:48;98185.69;;;26.20;50.09
17635;BME280;8936;49.010;12.120;2023-09-08T11:19:14;98185.63;;;26.01;49.63
17635;BME280;8936;49.010;12.120;2023-09-08T11:21:40;98178.25;;;25.86;49.25
17635;BME280;8936;49.010;12.120;2023-09-08T11:24:07;98184.72;;;25.77;49.22
17635;BME280;8936;49.010;12.120;2023-09-08T11:26:34;98181.63;;;26.14;50.09
17635;BME280;8936;49.010;12.120;2023-09-08T11:29:01;98174.31;;;26.18;49.84
17635;BME280;8936;49.010;12.120;2023-09-08T11:31:27;98180.94;;;26.17;50.29
17635;BME280;8936;49.010;12.120;2023-09-08T11:33:55;98188.13;;;26.25;50.56
17635;BME280;8936;49.010;12.120;2023-09-08T11:36:23;98169.28;;;26.39;50.70
17635;BME280;8936;49.010;12.120;2023-09-08T11:38:49;98175.53;;;26.20;50.29
17635;BME280;8936;49.010;12.120;2023-09-08T11:41:16;98172.91;;;26.08;49.83
17635;BME280;8936;49.010;12.120;2023-09-08T11:43:42;98168.78;;;26.34;50.57
17635;BME280;8936;49.010;12.120;2023-09-08T11:46:10;98171.06;;;26.51;50.80
17635;BME280;8936;49.010;12.120;2023-09-08T11:48:37;98179.06;;;26.40;50.53
17635;BME280;8936;49.010;12.120;2023-09-08T11:51:19;98168.56;;;26.42;51.06
17635;BME280;8936;49.010;12.120;2023-09-08T11:53:48;98165.44;;;26.44;49.91
17635;BME280;8936;49.010;12.120;2023-09-08T11:56:14;98165.44;;;26.24;50.52
17635;BME280;8936;49.010;12.120;2023-09-08T11:58:41;98167.44;;;26.27;50.31
17635;BME280;8936;49.010;12.120;2023-09-08T12:01:08;98177.19;;;26.25;50.14
17635;BME280;8936;49.010;12.120;2023-09-08T12:03:41;98159.09;;;26.20;50.67
17635;BME280;8936;49.010;12.120;2023-09-08T12:06:16;98166.63;;;26.43;50.93
17635;BME280;8936;49.010;12.120;2023-09-08T12:08:44;98165.94;;;26.49;50.92
17635;BME280;8936;49.010;12.120;2023-09-08T12:11:11;98161.25;;;26.30;50.57
17635;BME280;8936;49.010;12.120;2023-09-08T12:13:39;98159.75;;;26.33;50.54
17635;BME280;8936;49.010;12.120;2023-09-08T12:16:16;98148.50;;;26.38;51.12
17635;BME280;8936;49.010;12.120;2023-09-08T12:18:43;98164.06;;;26.72;50.98
17635;BME280;8936;49.010;12.120;2023-09-08T12:21:13;98156.56;;;26.69;51.14
17635;BME280;8936;49.010;12.120;2023-09-08T12:23:48;98162.69;;;26.44;51.75
17635;BME280;8936;49.010;12.120;2023-09-08T12:26:15;98158.41;;;26.43;51.67
17635;BME280;8936;49.010;12.120;2023-09-08T12:28:42;98162.19;;;26.38;51.43
17635;BME280;8936;49.010;12.120;2023-09-08T12:31:12;98157.16;;;26.40;52.07
17635;BME280;8936;49.010;12.120;2023-09-08T12:33:38;98151.47;;;26.49;51.44
17635;BME280;8936;49.010;12.120;2023-09-08T12:36:57;98151.25;;;26.57;51.65
17635;BME280;8936;49.010;12.120;2023-09-08T12:39:24;98145.91;;;26.64;50.96
17635;BME280;8936;49.010;12.120;2023-09-08T12:41:50;98142.56;;;26.74;52.22
17635;BME280;8936;49.010;12.120;2023-09-08T12:44:17;98146.34;;;26.66;51.10
17635;BME280;8936;49.010;12.120;2023-09-08T12:46:43;98144.81;;;26.69;52.29
17635;BME280;8936;49.010;12.120;2023-09-08T12:49:09;98144.88;;;26.72;51.67
17635;BME280;8936;49.010;12.120;2023-09-08T12:51:36;98138.84;;;26.83;51.20
17635;BME280;8936;49.010;12.120;2023-09-08T12:54:04;98136.91;;;26.83;51.46
17635;BME280;8936;49.010;12.120;2023-09-08T12:56:30;98142.00;;;26.85;51.52
17635;BME280;8936;49.010;12.120;2023-09-08T12:58:56;98138.66;;;26.95;50.21
17635;BME280;8936;49.010;12.120;2023-09-08T13:01:23;98141.69;;;26.90;51.65
17635;BME280;8936;49.010;12.120;2023-09-08T13:03:49;98140.25;;;26.96;51.16
17635;BME280;8936;49.010;12.120;2023-09-08T13:06:27;98128.78;;;26.90;50.63
17635;BME280;8936;49.010;12.120;2023-09-08T13:09:31;98133.19;;;26.95;50.76
17635;BME280;8936;49.010;12.120;2023-09-08T13:11:58;98131.00;;;27.04;50.38